Time;durP1;ratioP1;P1;durP2;ratioP2;P2;SDS_P1;SDS_P2;PMS_P1;PMS_P2;Temp;Humidity;BMP_temperature;BMP_pressure;BME280_temperature;BME280_humidity;BME280_pressure;Samples;Min_cycle;Max_cycle;Signal;HPM_P1;HPM_P2
2021/05/02 00:00:06;;;;;;;6.88;5.20;;;;;;;10.27;40.69;98508.59;3543802;40;20062;-65
2021/05/02 00:02:35;;;;;;;8.45;5.28;;;;;;;10.29;40.66;98513.69;3544686;40;20046;-64
2021/05/02 00:05:03;;;;;;;6.75;4.85;;;;;;;10.26;40.61;98514.09;3535068;40;20031;-65
2021/05/02 00:07:30;;;;;;;6.38;5.30;;;;;;;10.27;40.62;98507.78;3542270;40;20062;-65
2021/05/02 00:09:57;;;;;;;10.43;5.57;;;;;;;10.22;40.61;98508.34;3541625;40;20094;-64
2021/05/02 00:12:25;;;;;;;8.73;5.57;;;;;;;10.17;40.48;98516.88;3543293;40;20042;-65
2021/05/02 00:14:53;;;;;;;6.78;4.88;;;;;;;10.18;40.49;98512.38;3542455;40;20035;-65
2021/05/02 00:17:20;;;;;;;7.78;5.50;;;;;;;10.18;40.70;98517.66;3535114;40;20083;-65
2021/05/02 00:19:50;;;;;;;6.80;5.97;;;;;;;10.11;40.82;98514.19;3543151;40;20055;-64
2021/05/02 00:22:17;;;;;;;7.22;6.53;;;;;;;10.03;40.98;98515.16;3542671;40;20062;-63
2021/05/02 00:24:48;;;;;;;7.72;5.80;;;;;;;10.05;40.95;98514.97;3544151;40;20061;-63
2021/05/02 00:27:15;;;;;;;6.88;6.13;;;;;;;10.08;41.00;98517.22;3542907;40;20389;-63
2021/05/02 00:29:43;;;;;;;9.55;6.70;;;;;;;10.02;40.93;98521.47;3545711;40;20047;-63
2021/05/02 00:32:12;;;;;;;9.23;7.43;;;;;;;10.05;40.99;98525.53;3544965;40;20107;-63
2021/05/02 00:34:39;;;;;;;13.27;6.78;;;;;;;10.04;40.99;98521.25;3545316;40;20312;-63
2021/05/02 00:37:07;;;;;;;7.40;6.50;;;;;;;10.07;41.11;98524.31;3542038;40;20050;-64
2021/05/02 00:39:35;;;;;;;8.10;6.68;;;;;;;10.09;41.16;98521.50;3542168;40;20043;-63
2021/05/02 00:42:04;;;;;;;9.93;6.32;;;;;;;10.11;41.09;98522.91;3534125;40;20427;-64
2021/05/02 00:44:37;;;;;;;8.55;6.10;;;;;;;10.16;41.07;98523.16;3534857;40;20063;-65
2021/05/02 00:47:11;;;;;;;9.77;6.70;;;;;;;10.16;41.11;98522.31;3543255;40;20046;-64
2021/05/02 00:49:46;;;;;;;10.45;6.60;;;;;;;10.13;41.07;98520.09;3543718;40;20342;-63
2021/05/02 00:52:17;;;;;;;8.20;6.13;;;;;;;10.16;41.22;98519.69;3545464;40;20035;-64
2021/05/02 00:54:48;;;;;;;7.47;5.80;;;;;;;10.15;41.21;98525.97;3545222;40;20043;-63
2021/05/02 00:57:20;;;;;;;7.43;6.47;;;;;;;10.06;41.30;98520.06;3535867;40;20050;-63
2021/05/02 00:59:53;;;;;;;7.68;6.10;;;;;;;10.04;41.25;98522.09;3541455;40;20387;-63
2021/05/02 01:02:22;;;;;;;9.20;6.57;;;;;;;9.96;41.49;98516.97;3540933;40;20333;-64
2021/05/02 01:04:53;;;;;;;6.93;5.60;;;;;;;9.96;41.41;98519.63;3541789;40;20397;-64
2021/05/02 01:07:22;;;;;;;6.88;5.30;;;;;;;9.92;41.81;98519.19;3542614;40;20046;-64
2021/05/02 01:09:49;;;;;;;7.32;5.53;;;;;;;9.89;41.71;98527.50;3542791;40;20059;-64
2021/05/02 01:12:20;;;;;;;6.90;5.57;;;;;;;9.89;41.91;98530.13;3543641;40;20047;-64
2021/05/02 01:14:52;;;;;;;8.25;6.20;;;;;;;9.90;41.76;98528.31;3542640;40;20039;-64
2021/05/02 01:17:19;;;;;;;7.82;5.53;;;;;;;9.85;42.06;98533.34;3544371;40;20051;-64
2021/05/02 01:19:47;;;;;;;7.40;5.60;;;;;;;9.87;42.04;98532.13;3544907;40;20330;-64
2021/05/02 01:22:16;;;;;;;6.55;5.38;;;;;;;9.90;42.14;98534.38;3544191;40;20057;-64
2021/05/02 01:24:49;;;;;;;8.63;5.53;;;;;;;9.95;42.26;98541.72;3542699;40;20062;-64
2021/05/02 01:27:26;;;;;;;7.40;5.38;;;;;;;9.90;41.95;98541.50;3543532;40;20047;-64
2021/05/02 01:29:54;;;;;;;8.82;5.93;;;;;;;9.89;42.16;98539.88;3543993;40;20046;-65
2021/05/02 01:32:24;;;;;;;7.63;5.35;;;;;;;9.88;42.15;98547.00;3542927;40;20407;-64
2021/05/02 01:34:51;;;;;;;7.40;5.35;;;;;;;9.84;42.25;98543.09;3535136;40;20051;-64
2021/05/02 01:37:18;;;;;;;7.75;5.45;;;;;;;9.84;42.43;98544.94;3543463;40;20047;-64
2021/05/02 01:39:45;;;;;;;7.95;5.65;;;;;;;9.87;42.50;98552.44;3532298;40;20043;-65
2021/05/02 01:42:12;;;;;;;10.98;5.85;;;;;;;9.86;42.40;98551.63;3539625;40;20050;-65
2021/05/02 01:44:40;;;;;;;7.95;5.97;;;;;;;9.87;42.46;98553.25;3539377;40;20043;-65
2021/05/02 01:47:10;;;;;;;6.90;5.57;;;;;;;9.90;42.43;98555.50;3538574;40;20083;-65
2021/05/02 01:49:43;;;;;;;8.27;6.00;;;;;;;9.81;42.56;98561.97;3540457;40;20027;-65
2021/05/02 01:52:10;;;;;;;6.93;5.50;;;;;;;9.77;42.62;98565.19;3540919;40;20043;-64
2021/05/02 01:54:39;;;;;;;8.50;5.90;;;;;;;9.80;42.84;98559.53;3540662;40;20042;-65
2021/05/02 01:57:08;;;;;;;7.07;5.63;;;;;;;9.73;42.98;98561.31;3541691;40;20050;-64
2021/05/02 01:59:38;;;;;;;6.60;5.60;;;;;;;9.67;42.93;98560.22;3540346;40;20397;-65
2021/05/02 02:02:06;;;;;;;20.42;6.15;;;;;;;9.67;43.00;98562.88;3530414;40;20105;-65
2021/05/02 02:04:35;;;;;;;7.57;5.78;;;;;;;9.73;43.04;98566.59;3539060;40;20065;-64
2021/05/02 02:07:03;;;;;;;8.40;5.90;;;;;;;9.66;43.19;98567.34;3534559;40;20415;-64
2021/05/02 02:09:30;;;;;;;7.47;6.70;;;;;;;9.61;43.34;98568.94;3544419;40;20050;-64
2021/05/02 02:11:58;;;;;;;7.70;6.03;;;;;;;9.56;43.33;98572.16;3544090;40;20053;-64
2021/05/02 02:14:25;;;;;;;8.55;7.05;;;;;;;9.52;43.58;98567.44;3542676;40;20054;-63
2021/05/02 02:16:53;;;;;;;14.68;6.22;;;;;;;9.42;43.78;98575.66;3539735;40;20337;-63
2021/05/02 02:19:20;;;;;;;9.45;6.60;;;;;;;9.42;43.70;98575.66;3540853;40;20109;-63
2021/05/02 02:21:50;;;;;;;7.22;5.93;;;;;;;9.42;44.10;98578.31;3540791;40;20058;-64
2021/05/02 02:24:30;;;;;;;12.50;6.85;;;;;;;9.37;44.18;98583.34;3540710;40;20381;-64
2021/05/02 02:27:00;;;;;;;8.50;7.22;;;;;;;9.33;44.37;98590.81;3540503;40;20050;-63
2021/05/02 02:29:32;;;;;;;8.75;6.78;;;;;;;9.36;44.22;98587.81;3541943;40;20053;-63
2021/05/02 02:32:04;;;;;;;10.32;7.35;;;;;;;9.33;44.40;98587.38;3541201;40;20050;-64
2021/05/02 02:34:35;;;;;;;9.05;6.20;;;;;;;9.29;44.38;98594.03;3540479;40;20039;-64
2021/05/02 02:37:02;;;;;;;10.00;7.20;;;;;;;9.23;44.60;98594.81;3540155;40;20324;-64
2021/05/02 02:39:30;;;;;;;8.27;6.85;;;;;;;9.22;44.64;98593.97;3544651;40;20172;-64
2021/05/02 02:41:59;;;;;;;9.40;7.97;;;;;;;9.15;44.86;98599.19;3545441;40;20050;-63
2021/05/02 02:44:28;;;;;;;11.18;6.95;;;;;;;9.09;45.13;98607.03;3545996;40;20046;-65
2021/05/02 02:46:58;;;;;;;7.97;7.07;;;;;;;9.04;45.36;98607.59;3546556;40;20070;-65
2021/05/02 02:49:28;;;;;;;9.20;6.53;;;;;;;9.11;45.51;98605.03;3547628;40;20057;-65
2021/05/02 02:51:57;;;;;;;8.90;6.63;;;;;;;9.12;45.63;98607.47;3542155;40;20042;-65
2021/05/02 02:54:26;;;;;;;7.68;6.60;;;;;;;9.12;45.67;98612.75;3531662;40;20042;-65
2021/05/02 02:56:57;;;;;;;7.63;6.22;;;;;;;9.14;46.33;98615.19;3540531;40;20046;-65
2021/05/02 02:59:31;;;;;;;8.20;6.43;;;;;;;9.06;46.17;98608.25;3540359;40;20051;-65
2021/05/02 03:01:59;;;;;;;8.05;6.88;;;;;;;9.02;46.39;98606.97;3531138;40;20065;-65
2021/05/02 03:04:32;;;;;;;10.23;7.25;;;;;;;9.01;46.41;98605.31;3540026;40;20065;-65
2021/05/02 03:07:00;;;;;;;8.18;7.00;;;;;;;8.96;46.35;98606.91;3544604;40;20058;-65
2021/05/02 03:09:28;;;;;;;9.40;6.57;;;;;;;8.93;46.78;98611.53;3547307;40;20062;-65
2021/05/02 03:11:55;;;;;;;10.82;7.00;;;;;;;8.88;46.84;98613.91;3538695;40;20054;-65
2021/05/02 03:14:22;;;;;;;9.52;7.47;;;;;;;8.82;47.10;98616.50;3545648;40;20031;-65
2021/05/02 03:16:52;;;;;;;8.90;6.82;;;;;;;8.81;47.29;98628.81;3540380;40;20050;-65
2021/05/02 03:19:24;;;;;;;9.15;7.10;;;;;;;8.81;47.27;98620.09;3540076;40;20052;-65
2021/05/02 03:21:55;;;;;;;9.30;6.45;;;;;;;8.74;47.62;98622.69;3543141;40;20385;-65
2021/05/02 03:24:27;;;;;;;9.48;6.07;;;;;;;8.66;47.85;98626.25;3539881;40;20055;-64
2021/05/02 03:27:00;;;;;;;6.72;5.95;;;;;;;8.55;48.01;98634.59;3539809;40;20054;-64
2021/05/02 03:29:33;;;;;;;9.07;6.43;;;;;;;8.50;48.27;98638.81;3542919;40;20057;-65
2021/05/02 03:32:01;;;;;;;9.45;6.20;;;;;;;8.51;48.30;98641.25;3541905;40;20478;-65
2021/05/02 03:34:29;;;;;;;7.72;6.05;;;;;;;8.51;48.48;98638.59;3541969;40;20365;-65
2021/05/02 03:37:01;;;;;;;8.40;6.10;;;;;;;8.51;48.57;98643.06;3541494;40;20065;-65
2021/05/02 03:39:29;;;;;;;9.90;5.95;;;;;;;8.50;48.50;98642.25;3541142;40;20320;-65
2021/05/02 03:41:56;;;;;;;6.65;5.95;;;;;;;8.49;48.73;98647.69;3542457;40;20069;-64
2021/05/02 03:44:22;;;;;;;7.95;6.13;;;;;;;8.48;48.81;98648.69;3542950;40;20051;-64
2021/05/02 03:46:49;;;;;;;8.80;7.05;;;;;;;8.43;49.02;98650.06;3542473;40;20050;-65
2021/05/02 03:49:16;;;;;;;10.20;6.95;;;;;;;8.39;49.13;98647.97;3542620;40;20035;-64
2021/05/02 03:51:43;;;;;;;7.50;6.70;;;;;;;8.37;49.24;98648.16;3545022;40;20031;-63
2021/05/02 03:54:11;;;;;;;7.15;6.43;;;;;;;8.36;49.32;98659.66;3542179;40;20051;-64
2021/05/02 03:56:39;;;;;;;8.25;6.43;;;;;;;8.37;49.39;98658.69;3540228;40;20054;-63
2021/05/02 03:59:12;;;;;;;7.70;6.30;;;;;;;8.34;49.53;98655.59;3539577;40;20090;-63
2021/05/02 04:01:47;;;;;;;11.30;6.55;;;;;;;8.33;49.48;98660.03;3540151;40;20042;-63
2021/05/02 04:04:17;;;;;;;8.25;5.70;;;;;;;8.28;49.90;98662.38;3539673;40;20065;-63
2021/05/02 04:06:45;;;;;;;7.32;5.60;;;;;;;8.29;50.03;98664.03;3530852;40;20055;-63
2021/05/02 04:09:14;;;;;;;6.43;5.78;;;;;;;8.34;50.07;98666.13;3539352;40;20046;-64
2021/05/02 04:11:42;;;;;;;7.75;6.47;;;;;;;8.28;50.08;98674.72;3539586;40;20047;-64
2021/05/02 04:14:11;;;;;;;9.15;5.95;;;;;;;8.25;50.26;98670.66;3540026;40;20042;-64
2021/05/02 04:16:37;;;;;;;7.60;5.82;;;;;;;8.24;50.40;98670.81;3540245;40;20052;-64
2021/05/02 04:19:06;;;;;;;8.77;6.78;;;;;;;8.21;50.51;98682.56;3539755;40;20095;-65
2021/05/02 04:21:34;;;;;;;8.70;6.78;;;;;;;8.18;50.69;98686.34;3539720;40;20051;-65
2021/05/02 04:24:01;;;;;;;10.52;5.95;;;;;;;8.11;50.95;98706.50;3539899;40;20054;-65
2021/05/02 04:26:29;;;;;;;9.00;5.97;;;;;;;8.02;51.25;98697.03;3539828;40;20050;-64
2021/05/02 04:28:55;;;;;;;7.57;6.13;;;;;;;7.93;51.50;98708.63;3539223;40;20043;-64
2021/05/02 04:31:22;;;;;;;7.60;6.78;;;;;;;7.86;51.62;98713.78;3540051;40;20050;-64
2021/05/02 04:33:49;;;;;;;7.85;6.28;;;;;;;7.80;51.94;98719.78;3530432;40;20038;-64
2021/05/02 04:36:16;;;;;;;9.05;6.97;;;;;;;7.77;51.94;98722.75;3539942;40;20054;-64
2021/05/02 04:38:43;;;;;;;8.90;7.13;;;;;;;7.75;52.18;98724.72;3541693;40;20046;-64
2021/05/02 04:41:09;;;;;;;8.45;7.47;;;;;;;7.74;52.24;98725.72;3543816;40;20054;-64
2021/05/02 04:43:37;;;;;;;11.18;7.97;;;;;;;7.70;52.42;98733.16;3543378;40;20046;-64
2021/05/02 04:46:04;;;;;;;9.18;7.95;;;;;;;7.76;52.25;98726.38;3534171;40;20057;-64
2021/05/02 04:48:31;;;;;;;12.13;8.05;;;;;;;7.86;52.11;98731.41;3539652;40;20055;-64
2021/05/02 04:50:58;;;;;;;11.60;8.55;;;;;;;7.92;52.16;98731.50;3539839;40;20051;-64
2021/05/02 04:53:25;;;;;;;10.27;8.63;;;;;;;7.97;51.83;98730.97;3539424;40;20046;-64
2021/05/02 04:55:51;;;;;;;11.35;8.65;;;;;;;8.05;51.61;98738.81;3539693;40;20047;-64
2021/05/02 04:58:18;;;;;;;10.75;9.35;;;;;;;8.12;51.54;98754.69;3539331;40;20029;-64
2021/05/02 05:00:46;;;;;;;10.68;9.57;;;;;;;8.14;51.41;98750.91;3539645;40;20058;-64
2021/05/02 05:03:13;;;;;;;11.10;8.55;;;;;;;8.19;51.41;98750.34;3539725;40;20078;-64
2021/05/02 05:05:39;;;;;;;12.13;10.00;;;;;;;8.17;51.42;98762.91;3539496;40;20061;-65
2021/05/02 05:08:07;;;;;;;13.13;9.55;;;;;;;8.22;51.37;98757.09;3539186;40;20142;-64
2021/05/02 05:10:33;;;;;;;11.48;10.02;;;;;;;8.23;51.41;98764.00;3539186;40;20054;-64
2021/05/02 05:13:00;;;;;;;11.13;9.60;;;;;;;8.26;51.24;98769.72;3539243;40;20061;-64
2021/05/02 05:15:27;;;;;;;10.32;9.32;;;;;;;8.28;50.97;98766.91;3539587;40;20075;-64
2021/05/02 05:17:55;;;;;;;12.23;9.35;;;;;;;8.33;50.95;98761.94;3530280;40;20046;-64
2021/05/02 05:20:22;;;;;;;13.15;9.90;;;;;;;8.41;51.08;98769.78;3538371;40;20046;-64
2021/05/02 05:22:49;;;;;;;11.35;9.25;;;;;;;8.45;51.14;98776.34;3538589;40;20078;-64
2021/05/02 05:25:16;;;;;;;14.07;11.27;;;;;;;8.50;50.88;98776.63;3539509;40;20083;-63
2021/05/02 05:27:42;;;;;;;10.55;9.30;;;;;;;8.51;51.05;98783.50;3539081;40;20051;-64
2021/05/02 05:30:11;;;;;;;10.95;8.68;;;;;;;8.43;51.31;98783.59;3539374;40;20049;-65
2021/05/02 05:32:38;;;;;;;10.05;8.05;;;;;;;8.45;51.28;98789.50;3539146;40;20400;-65
2021/05/02 05:35:08;;;;;;;14.55;8.68;;;;;;;8.50;51.14;98795.06;3543006;40;20433;-64
2021/05/02 05:37:35;;;;;;;11.52;9.48;;;;;;;8.54;51.10;98796.34;3543783;40;20047;-65
2021/05/02 05:40:05;;;;;;;9.73;8.65;;;;;;;8.66;51.02;98794.91;3543581;40;20043;-64
2021/05/02 05:42:32;;;;;;;12.73;9.80;;;;;;;8.75;51.00;98798.25;3541360;40;20053;-64
2021/05/02 05:44:59;;;;;;;9.65;8.55;;;;;;;8.80;50.80;98800.34;3541847;40;20086;-64
2021/05/02 05:47:26;;;;;;;11.32;8.95;;;;;;;8.77;50.67;98803.34;3540998;40;20041;-64
2021/05/02 05:49:53;;;;;;;13.98;9.30;;;;;;;8.78;50.65;98797.09;3537623;40;20055;-64
2021/05/02 05:52:22;;;;;;;9.73;8.68;;;;;;;8.87;50.59;98796.81;3547676;40;20061;-64
2021/05/02 05:54:49;;;;;;;12.18;9.93;;;;;;;8.98;50.46;98806.09;3539865;40;20049;-65
2021/05/02 05:57:15;;;;;;;14.82;9.50;;;;;;;9.03;50.26;98809.00;3549196;40;20042;-64
2021/05/02 05:59:42;;;;;;;13.32;9.80;;;;;;;9.05;50.17;98812.25;3549214;40;20076;-65
2021/05/02 06:02:10;;;;;;;13.23;10.20;;;;;;;9.02;50.11;98817.06;3548887;40;20042;-64
2021/05/02 06:04:36;;;;;;;13.75;9.68;;;;;;;8.99;50.09;98814.81;3548211;40;20041;-64
2021/05/02 06:07:04;;;;;;;13.18;11.48;;;;;;;9.04;50.13;98818.53;3548195;40;20034;-64
2021/05/02 06:09:32;;;;;;;12.98;11.00;;;;;;;9.07;50.27;98826.09;3548857;40;20031;-65
2021/05/02 06:11:59;;;;;;;14.95;12.65;;;;;;;9.02;50.14;98822.34;3549293;40;20050;-64
2021/05/02 06:14:26;;;;;;;14.40;12.32;;;;;;;8.92;50.51;98825.28;3549074;40;20046;-64
2021/05/02 06:16:53;;;;;;;16.88;13.48;;;;;;;8.96;50.50;98821.28;3546609;40;20074;-64
2021/05/02 06:19:19;;;;;;;16.92;13.25;;;;;;;8.91;50.68;98831.53;3544762;40;20062;-65
2021/05/02 06:21:46;;;;;;;14.93;12.55;;;;;;;8.83;50.87;98831.63;3535001;40;20050;-65
2021/05/02 06:24:13;;;;;;;13.93;12.52;;;;;;;8.86;50.93;98833.91;3535077;40;20050;-65
2021/05/02 06:26:40;;;;;;;16.30;13.45;;;;;;;8.89;50.93;98842.25;3543711;40;20332;-64
2021/05/02 06:29:07;;;;;;;14.20;12.70;;;;;;;9.05;50.86;98837.81;3543356;40;20172;-65
2021/05/02 06:31:34;;;;;;;19.90;16.40;;;;;;;9.20;50.72;98840.47;3543270;40;20046;-64
2021/05/02 06:34:01;;;;;;;15.10;13.55;;;;;;;9.16;50.58;98834.72;3543170;40;20054;-64
2021/05/02 06:36:28;;;;;;;17.98;14.02;;;;;;;9.07;50.61;98839.28;3543382;40;20103;-64
2021/05/02 06:38:55;;;;;;;14.88;13.32;;;;;;;9.04;50.85;98846.72;3543293;40;20049;-65
2021/05/02 06:41:22;;;;;;;14.30;12.80;;;;;;;9.19;50.89;98852.84;3541562;40;20053;-65
2021/05/02 06:43:49;;;;;;;19.63;14.77;;;;;;;9.32;50.58;98845.09;3540363;40;20043;-64
2021/05/02 06:46:27;;;;;;;16.42;14.65;;;;;;;9.24;50.56;98849.66;3540268;40;20501;-64
2021/05/02 06:48:56;;;;;;;15.85;14.23;;;;;;;9.15;50.59;98855.00;3539980;40;20070;-64
2021/05/02 06:51:23;;;;;;;18.58;14.68;;;;;;;9.10;50.91;98853.91;3531374;40;20054;-64
2021/05/02 06:53:51;;;;;;;18.20;14.15;;;;;;;9.14;50.75;98861.28;3540398;40;20055;-65
2021/05/02 06:56:18;;;;;;;16.90;14.05;;;;;;;9.28;50.86;98854.38;3540045;40;20043;-66
2021/05/02 06:58:46;;;;;;;17.05;14.02;;;;;;;9.40;50.44;98857.38;3539684;40;20054;-64
2021/05/02 07:01:14;;;;;;;16.13;13.93;;;;;;;9.45;50.11;98854.19;3540084;40;20047;-64
2021/05/02 07:03:41;;;;;;;14.75;13.25;;;;;;;9.56;50.25;98861.63;3530833;40;20046;-64
2021/05/02 07:06:24;;;;;;;17.52;13.77;;;;;;;9.55;49.99;98865.25;3540266;40;20054;-65
2021/05/02 07:08:51;;;;;;;15.10;13.52;;;;;;;9.39;49.89;98861.00;3530226;40;20046;-64
2021/05/02 07:11:18;;;;;;;16.33;14.32;;;;;;;9.46;49.82;98866.34;3539771;40;20054;-65
2021/05/02 07:13:45;;;;;;;18.48;15.55;;;;;;;9.56;49.88;98867.72;3539692;40;20137;-65
2021/05/02 07:16:12;;;;;;;14.57;12.70;;;;;;;9.59;49.73;98864.72;3540179;40;20336;-65
2021/05/02 07:18:40;;;;;;;15.57;11.82;;;;;;;9.63;49.42;98866.00;3539714;40;20054;-63
2021/05/02 07:21:08;;;;;;;15.32;13.38;;;;;;;9.80;49.43;98863.13;3539813;40;20285;-65
2021/05/02 07:23:38;;;;;;;14.57;12.88;;;;;;;9.57;49.09;98861.44;3539662;40;20047;-64
2021/05/02 07:26:05;;;;;;;15.07;13.52;;;;;;;9.57;49.42;98868.53;3531270;40;20051;-65
2021/05/02 07:28:31;;;;;;;15.93;12.68;;;;;;;9.61;49.22;98872.44;3539587;40;20087;-65
2021/05/02 07:30:58;;;;;;;17.05;13.20;;;;;;;9.76;49.36;98869.78;3540141;40;20053;-64
2021/05/02 07:33:27;;;;;;;25.98;16.90;;;;;;;9.97;48.72;98872.44;3539698;40;20086;-65
2021/05/02 07:35:56;;;;;;;15.93;12.80;;;;;;;10.01;48.73;98871.06;3539829;40;20087;-64
2021/05/02 07:38:24;;;;;;;15.70;13.10;;;;;;;10.09;48.65;98868.31;3539849;40;20043;-64
2021/05/02 07:40:52;;;;;;;14.82;12.93;;;;;;;10.12;48.37;98867.09;3542214;40;20051;-64
2021/05/02 07:43:19;;;;;;;14.23;12.77;;;;;;;10.02;48.01;98859.50;3533596;40;20059;-64
2021/05/02 07:45:47;;;;;;;13.52;12.07;;;;;;;10.09;48.34;98870.16;3542746;40;20063;-64
2021/05/02 07:48:14;;;;;;;15.82;12.15;;;;;;;10.18;47.80;98869.81;3542842;40;20276;-64
2021/05/02 07:50:41;;;;;;;13.93;12.30;;;;;;;10.35;47.59;98870.41;3542870;40;20058;-66
2021/05/02 07:53:10;;;;;;;14.23;11.88;;;;;;;10.43;46.87;98877.41;3534019;40;20046;-65
2021/05/02 07:55:37;;;;;;;12.07;10.88;;;;;;;10.41;46.91;98874.97;3542427;40;20041;-65
2021/05/02 07:58:04;;;;;;;13.70;11.20;;;;;;;10.58;46.52;98870.22;3542413;40;20047;-65
2021/05/02 08:00:31;;;;;;;13.43;12.00;;;;;;;10.76;46.52;98872.38;3542554;40;20058;-65
2021/05/02 08:02:57;;;;;;;13.00;11.23;;;;;;;10.88;45.69;98870.84;3542598;40;20050;-63
2021/05/02 08:05:24;;;;;;;12.57;11.32;;;;;;;10.89;45.45;98877.75;3542558;40;20058;-65
2021/05/02 08:07:51;;;;;;;14.95;11.75;;;;;;;10.91;45.12;98881.06;3542058;40;20062;-64
2021/05/02 08:10:20;;;;;;;12.10;10.43;;;;;;;11.02;45.33;98882.34;3542513;40;20058;-64
2021/05/02 08:12:47;;;;;;;13.63;10.93;;;;;;;11.10;44.81;98892.78;3542696;40;20055;-64
2021/05/02 08:15:14;;;;;;;11.82;10.55;;;;;;;11.06;44.70;98891.53;3602637;23;20077;-65
2021/05/02 08:17:41;;;;;;;13.80;11.02;;;;;;;11.11;44.68;98893.59;3549594;40;20050;-64
2021/05/02 08:20:09;;;;;;;12.05;10.35;;;;;;;11.29;44.29;98891.25;3549689;40;20046;-64
2021/05/02 08:22:36;;;;;;;14.75;11.43;;;;;;;11.45;43.57;98890.13;3549791;40;20057;-63
2021/05/02 08:25:04;;;;;;;12.27;10.98;;;;;;;11.72;43.28;98883.13;3540498;40;20057;-64
2021/05/02 08:27:31;;;;;;;15.35;11.13;;;;;;;11.92;42.78;98891.19;3549452;40;20057;-65
2021/05/02 08:29:59;;;;;;;13.35;11.95;;;;;;;11.97;42.52;98886.09;3550035;40;20663;-64
2021/05/02 08:32:26;;;;;;;12.30;11.00;;;;;;;11.93;42.12;98889.34;3540545;40;20054;-64
2021/05/02 08:34:53;;;;;;;12.18;10.90;;;;;;;11.90;42.31;98880.75;3540467;40;20053;-64
2021/05/02 08:37:20;;;;;;;12.02;10.60;;;;;;;11.92;42.52;98895.63;3549245;40;20046;-65
2021/05/02 08:39:47;;;;;;;10.98;9.88;;;;;;;12.01;42.71;98883.88;3549903;40;20076;-63
2021/05/02 08:42:14;;;;;;;15.68;11.32;;;;;;;12.07;41.90;98886.53;3550303;40;20400;-64
2021/05/02 08:44:43;;;;;;;13.38;11.98;;;;;;;12.00;41.78;98892.81;3550158;40;20050;-63
2021/05/02 08:47:12;;;;;;;13.02;11.73;;;;;;;11.93;41.45;98890.16;3549464;40;20046;-64
2021/05/02 08:49:40;;;;;;;12.85;11.43;;;;;;;11.92;41.32;98895.63;3541301;40;20046;-64
2021/05/02 08:52:07;;;;;;;13.93;12.52;;;;;;;11.80;41.16;98896.19;3540483;40;20038;-65
2021/05/02 08:54:35;;;;;;;14.75;12.18;;;;;;;11.87;41.13;98904.19;3540526;40;20053;-66
2021/05/02 08:57:03;;;;;;;12.05;10.90;;;;;;;11.79;40.85;98905.13;3550903;40;20054;-64
2021/05/02 08:59:31;;;;;;;13.85;12.40;;;;;;;11.53;41.19;98897.91;3541196;40;20057;-64
2021/05/02 09:01:59;;;;;;;12.38;11.00;;;;;;;11.45;41.32;98902.56;3541220;40;20070;-64
2021/05/02 09:04:27;;;;;;;12.50;10.57;;;;;;;11.66;40.83;98897.16;3550388;40;20053;-64
2021/05/02 09:06:55;;;;;;;11.02;9.93;;;;;;;11.95;40.26;98900.53;3541833;40;20058;-64
2021/05/02 09:09:24;;;;;;;11.32;10.18;;;;;;;12.27;39.47;98893.69;3541691;40;20050;-65
2021/05/02 09:11:54;;;;;;;10.50;9.20;;;;;;;12.39;38.80;98895.56;3550041;40;20412;-65
2021/05/02 09:14:30;;;;;;;11.02;9.93;;;;;;;12.71;38.17;98895.78;3550430;40;20288;-68
2021/05/02 09:17:01;;;;;;;10.20;9.18;;;;;;;12.87;38.05;98892.72;3550641;40;20058;-64
2021/05/02 09:19:31;;;;;;;11.52;8.40;;;;;;;12.76;37.26;98897.84;3549639;40;20098;-64
2021/05/02 09:22:11;;;;;;;8.88;8.07;;;;;;;12.60;36.62;98899.03;3540463;40;20128;-65
2021/05/02 09:24:38;;;;;;;7.35;6.60;;;;;;;12.35;36.49;98896.16;3549278;40;20046;-65
2021/05/02 09:27:08;;;;;;;7.30;6.50;;;;;;;12.38;36.36;98896.59;3549044;40;20073;-65
2021/05/02 09:29:36;;;;;;;8.70;6.07;;;;;;;12.26;36.21;98895.53;3549486;40;20046;-64
2021/05/02 09:32:07;;;;;;;7.57;5.78;;;;;;;12.36;35.92;98888.00;3549281;40;20342;-65
2021/05/02 09:34:35;;;;;;;6.90;5.00;;;;;;;12.43;35.92;98895.97;3549778;40;20046;-66
2021/05/02 09:37:05;;;;;;;6.03;5.45;;;;;;;12.32;34.77;98897.38;3549542;40;20297;-65
2021/05/02 09:39:42;;;;;;;5.38;4.88;;;;;;;12.05;33.70;98901.81;3540433;40;20062;-66
2021/05/02 09:42:11;;;;;;;4.85;4.40;;;;;;;12.13;33.70;98900.81;3549121;40;20046;-64
2021/05/02 09:44:43;;;;;;;6.18;5.43;;;;;;;12.39;33.89;98897.41;3549269;40;20046;-65
2021/05/02 09:47:29;;;;;;;6.35;4.82;;;;;;;12.38;33.76;98893.13;3548903;40;20105;-65
2021/05/02 09:50:16;;;;;;;6.30;5.70;;;;;;;12.44;34.25;98892.28;3548901;40;20050;-64
2021/05/02 09:52:46;;;;;;;6.25;4.65;;;;;;;12.38;33.87;98907.19;3548866;40;20054;-64
2021/05/02 09:55:28;;;;;;;6.25;4.35;;;;;;;12.42;34.07;98894.34;3548876;40;20058;-65
2021/05/02 09:57:58;;;;;;;5.05;4.55;;;;;;;12.33;33.75;98900.88;3540176;40;20058;-64
2021/05/02 10:00:37;;;;;;;4.63;4.22;;;;;;;12.08;33.74;98904.06;3542629;40;20031;-65
2021/05/02 10:03:09;;;;;;;4.82;4.32;;;;;;;12.07;34.03;98899.78;3549402;40;20050;-64
2021/05/02 10:05:52;;;;;;;5.25;4.20;;;;;;;12.14;34.21;98902.44;3550163;40;20057;-65
2021/05/02 10:08:20;;;;;;;4.90;4.43;;;;;;;12.46;34.23;98908.03;3548461;40;20073;-65
2021/05/02 10:10:47;;;;;;;8.15;5.18;;;;;;;12.56;34.19;98913.72;3548541;40;20098;-64
2021/05/02 10:13:14;;;;;;;6.53;4.30;;;;;;;12.68;34.28;98921.91;3549617;40;20057;-65
2021/05/02 10:15:41;;;;;;;4.53;4.13;;;;;;;12.88;34.32;98912.94;3548864;40;20042;-63
2021/05/02 10:18:14;;;;;;;5.03;4.45;;;;;;;12.86;34.81;98909.69;3548267;40;20061;-65
2021/05/02 10:20:43;;;;;;;5.57;4.40;;;;;;;12.76;33.98;98905.78;3548739;40;20054;-64
2021/05/02 10:23:12;;;;;;;5.95;5.00;;;;;;;12.72;33.87;98918.63;3549676;40;20062;-65
2021/05/02 10:25:40;;;;;;;4.43;3.90;;;;;;;12.65;34.01;98917.81;3548640;40;20061;-64
2021/05/02 10:28:08;;;;;;;4.15;3.75;;;;;;;12.63;33.03;98920.69;3539547;40;20050;-64
2021/05/02 10:30:39;;;;;;;4.30;3.90;;;;;;;12.62;32.89;98921.69;3548716;40;20519;-65
2021/05/02 10:33:09;;;;;;;5.15;3.60;;;;;;;12.61;32.40;98922.72;3548685;40;20046;-64
2021/05/02 10:35:48;;;;;;;4.70;3.85;;;;;;;12.73;32.32;98917.63;3548717;40;20046;-66
2021/05/02 10:38:20;;;;;;;4.45;4.05;;;;;;;13.02;32.86;98915.56;3540311;40;20038;-66
2021/05/02 10:40:47;;;;;;;4.60;4.15;;;;;;;13.20;32.97;98907.00;3550522;40;20622;-64
2021/05/02 10:43:27;;;;;;;4.63;3.55;;;;;;;13.25;32.32;98915.97;3550202;40;20089;-64
2021/05/02 10:45:55;;;;;;;4.30;3.90;;;;;;;13.13;32.28;98926.38;3551619;40;20392;-65
2021/05/02 10:48:49;;;;;;;3.65;3.35;;;;;;;12.95;32.08;98926.19;3549983;40;20053;-65
2021/05/02 10:51:29;;;;;;;3.67;3.38;;;;;;;12.81;32.32;98927.22;3550854;40;20057;-64
2021/05/02 10:54:14;;;;;;;4.18;3.17;;;;;;;12.87;32.26;98921.09;3552617;40;20058;-64
2021/05/02 10:56:56;;;;;;;3.83;3.53;;;;;;;13.22;31.80;98918.19;3551756;40;20331;-63
2021/05/02 10:59:26;;;;;;;4.15;3.08;;;;;;;13.60;31.99;98927.16;3551843;40;20046;-66
2021/05/02 11:01:54;;;;;;;5.38;3.35;;;;;;;13.63;30.99;98917.94;3549082;40;20053;-66
2021/05/02 11:04:21;;;;;;;3.42;3.03;;;;;;;13.07;31.15;98918.44;3546006;40;20092;-67
2021/05/02 11:06:54;;;;;;;3.47;3.17;;;;;;;13.41;30.98;98921.88;3547422;40;20078;-65
2021/05/02 11:09:23;;;;;;;3.10;2.90;;;;;;;13.63;30.79;98923.25;3550476;40;20049;-64
2021/05/02 11:11:55;;;;;;;4.07;2.78;;;;;;;13.66;30.83;98922.03;3541341;40;20054;-64
2021/05/02 11:14:38;;;;;;;3.78;3.22;;;;;;;13.61;30.23;98923.47;3542187;40;20336;-64
2021/05/02 11:17:31;;;;;;;4.55;3.10;;;;;;;13.72;30.00;98926.50;3549974;40;20047;-63
2021/05/02 11:20:00;;;;;;;3.30;3.00;;;;;;;13.61;30.52;98928.78;3542433;40;20356;-66
2021/05/02 11:22:29;;;;;;;2.95;2.65;;;;;;;13.49;29.65;98930.44;3551259;40;20078;-64
2021/05/02 11:25:13;;;;;;;2.90;2.63;;;;;;;13.45;29.38;98929.22;3551847;40;20363;-66
2021/05/02 11:27:50;;;;;;;4.03;2.75;;;;;;;13.43;29.06;98938.41;3552230;40;20062;-65
2021/05/02 11:30:23;;;;;;;2.70;2.50;;;;;;;13.63;29.17;98936.53;3543954;40;20132;-64
2021/05/02 11:32:50;;;;;;;3.20;2.90;;;;;;;13.91;29.27;98932.75;3552506;40;20327;-66
2021/05/02 11:35:37;;;;;;;8.10;6.35;;;;;;;14.01;29.92;98933.13;3542999;40;20088;-65
2021/05/02 11:38:05;;;;;;;5.05;4.13;;;;;;;13.79;29.89;98932.59;3552165;40;20058;-64
2021/05/02 11:40:37;;;;;;;8.75;6.95;;;;;;;13.58;30.29;98950.44;3553096;40;20049;-64